Time;durP1;ratioP1;P1;durP2;ratioP2;P2;SDS_P1;SDS_P2;PMS_P1;PMS_P2;Temp;Humidity;BMP_temperature;BMP_pressure;BME280_temperature;BME280_humidity;BME280_pressure;Samples;Min_cycle;Max_cycle;Signal;HPM_P1;HPM_P2
2022/08/18 00:02:04;;;;;;;11.85;7.07;;;23.10;64.10;;;;;;4998651;28;20030;-77
2022/08/18 00:04:32;;;;;;;11.35;6.22;;;23.00;64.10;;;;;;5002003;28;20579;-77
2022/08/18 00:06:58;;;;;;;8.90;6.53;;;23.00;64.20;;;;;;4998869;28;20023;-78
2022/08/18 00:09:24;;;;;;;8.73;5.82;;;23.00;64.10;;;;;;4985073;28;20060;-78
2022/08/18 00:11:50;;;;;;;7.32;5.97;;;23.10;64.30;;;;;;5000156;28;20062;-78
2022/08/18 00:14:19;;;;;;;10.00;6.47;;;23.20;64.40;;;;;;4980274;28;20068;-81
2022/08/18 00:16:46;;;;;;;9.18;5.65;;;23.30;63.90;;;;;;4971994;28;20105;-80
2022/08/18 00:19:12;;;;;;;8.88;6.13;;;23.40;64.40;;;;;;4981898;28;20041;-80
2022/08/18 00:21:38;;;;;;;10.98;5.95;;;23.50;63.30;;;;;;4984334;28;20030;-81
2022/08/18 00:24:04;;;;;;;10.18;5.47;;;23.50;63.20;;;;;;4998527;28;20034;-80
2022/08/18 00:26:30;;;;;;;8.10;6.07;;;23.60;63.00;;;;;;4982132;28;20042;-82
2022/08/18 00:28:56;;;;;;;9.10;6.25;;;23.60;63.10;;;;;;4998250;28;20394;-78
2022/08/18 00:31:22;;;;;;;7.63;6.32;;;23.60;63.30;;;;;;4986294;28;20034;-79
2022/08/18 00:33:48;;;;;;;12.10;6.60;;;23.60;63.10;;;;;;5001604;28;20030;-79
2022/08/18 00:36:14;;;;;;;7.93;5.88;;;23.70;62.90;;;;;;4965927;28;20033;-80
2022/08/18 00:38:40;;;;;;;11.27;6.20;;;23.70;62.90;;;;;;4967939;28;20108;-78
2022/08/18 00:41:06;;;;;;;14.30;6.60;;;23.60;62.90;;;;;;4999651;28;20069;-79
2022/08/18 00:43:39;;;;;;;9.77;6.03;;;23.50;63.10;;;;;;4999219;28;20061;-82
2022/08/18 00:46:14;;;;;;;11.50;7.18;;;23.40;63.50;;;;;;4999541;28;20041;-81
2022/08/18 00:48:40;;;;;;;10.68;6.00;;;23.20;63.90;;;;;;4998334;28;20030;-81
2022/08/18 00:51:11;;;;;;;10.20;6.93;;;23.20;64.20;;;;;;4984845;28;20038;-81
2022/08/18 00:53:48;;;;;;;10.10;6.70;;;23.10;64.30;;;;;;4982733;28;20042;-80
2022/08/18 00:56:21;;;;;;;11.32;7.00;;;23.10;64.70;;;;;;4999718;28;20084;-81
2022/08/18 00:59:00;;;;;;;10.85;6.65;;;23.00;65.00;;;;;;4981910;28;20046;-80
2022/08/18 01:01:29;;;;;;;10.43;7.07;;;23.00;65.10;;;;;;5000388;28;20519;-81
2022/08/18 01:04:07;;;;;;;9.55;6.40;;;22.90;65.20;;;;;;4978655;28;20492;-81
2022/08/18 01:06:50;;;;;;;9.00;6.22;;;23.00;65.70;;;;;;4999160;28;20088;-81
2022/08/18 01:09:17;;;;;;;10.73;7.60;;;23.10;66.10;;;;;;5000787;28;20054;-82
2022/08/18 01:11:43;;;;;;;12.80;7.80;;;23.10;65.10;;;;;;4982853;28;20030;-81
2022/08/18 01:14:14;;;;;;;9.45;6.80;;;23.10;65.20;;;;;;4999668;28;20081;-81
2022/08/18 01:22:51;;;;;;;9.45;6.70;;;22.80;65.80;;;;;;4983146;28;20149;-81
2022/08/18 01:28:06;;;;;;;13.85;7.50;;;22.70;66.30;;;;;;4983125;28;20033;-82
2022/08/18 01:30:44;;;;;;;10.85;7.25;;;22.60;66.70;;;;;;5002669;28;20064;-81
2022/08/18 01:33:11;;;;;;;14.85;7.80;;;22.50;67.00;;;;;;4980250;28;20116;-81
2022/08/18 01:35:39;;;;;;;11.98;7.93;;;22.40;67.30;;;;;;4999094;28;20030;-81
2022/08/18 01:38:05;;;;;;;15.88;8.90;;;22.40;67.50;;;;;;5002009;28;20034;-81
2022/08/18 01:40:31;;;;;;;16.35;8.18;;;22.40;67.70;;;;;;5003717;28;20180;-81
2022/08/18 01:42:57;;;;;;;14.68;8.48;;;22.30;67.70;;;;;;4989228;28;20449;-80
2022/08/18 01:45:24;;;;;;;14.38;8.60;;;22.30;67.60;;;;;;4985733;28;20116;-80
2022/08/18 01:47:49;;;;;;;11.02;8.27;;;22.30;68.00;;;;;;5001706;28;20192;-78
2022/08/18 01:50:17;;;;;;;13.20;8.48;;;22.30;68.10;;;;;;5002345;28;20114;-79
2022/08/18 01:52:43;;;;;;;13.13;8.80;;;22.30;68.20;;;;;;4973043;28;20033;-80
2022/08/18 01:55:09;;;;;;;15.18;9.48;;;22.20;68.10;;;;;;5001793;28;20455;-79
2022/08/18 01:57:43;;;;;;;15.65;8.70;;;22.20;68.40;;;;;;5005273;28;20500;-80
2022/08/18 02:00:11;;;;;;;12.13;8.63;;;22.20;68.70;;;;;;4972941;28;20050;-81
2022/08/18 02:02:38;;;;;;;13.80;8.65;;;22.10;68.40;;;;;;5004759;28;20116;-81
2022/08/18 02:05:15;;;;;;;14.25;9.32;;;22.10;68.80;;;;;;5002906;28;20038;-81
2022/08/18 02:07:41;;;;;;;15.35;9.45;;;22.10;68.90;;;;;;5003683;28;20060;-81
2022/08/18 02:10:09;;;;;;;14.57;10.20;;;22.10;68.90;;;;;;4985635;28;20034;-81
2022/08/18 02:12:36;;;;;;;18.25;10.18;;;22.00;69.10;;;;;;5004040;28;20038;-81
2022/08/18 02:15:04;;;;;;;14.88;10.07;;;22.00;69.00;;;;;;5002446;28;20551;-81
2022/08/18 02:17:36;;;;;;;17.40;10.77;;;21.90;69.30;;;;;;5002579;28;20034;-81
2022/08/18 02:20:04;;;;;;;16.60;10.20;;;21.90;69.40;;;;;;5005514;28;20113;-81
2022/08/18 02:22:30;;;;;;;16.65;10.88;;;22.00;69.50;;;;;;5004074;28;20034;-80
2022/08/18 02:24:56;;;;;;;17.48;11.93;;;21.90;69.60;;;;;;5005051;28;20068;-80
2022/08/18 02:27:22;;;;;;;16.38;13.10;;;21.80;69.80;;;;;;4986486;28;20060;-82
2022/08/18 02:29:48;;;;;;;22.15;12.50;;;21.80;69.80;;;;;;5000191;28;20046;-80
2022/08/18 02:32:14;;;;;;;16.00;11.30;;;21.80;70.00;;;;;;5002318;28;20112;-82
2022/08/18 02:34:41;;;;;;;16.90;11.32;;;21.90;69.80;;;;;;4988499;28;20132;-81
2022/08/18 02:37:08;;;;;;;15.02;11.05;;;21.90;69.50;;;;;;5003740;28;20036;-80
2022/08/18 02:39:36;;;;;;;18.95;10.85;;;22.00;69.80;;;;;;5003636;28;20168;-81
2022/08/18 02:42:04;;;;;;;16.50;10.50;;;21.90;69.60;;;;;;5001497;28;20059;-79
2022/08/18 02:44:30;;;;;;;14.27;9.27;;;21.90;69.70;;;;;;5002272;28;20037;-78
2022/08/18 02:46:57;;;;;;;12.48;8.82;;;22.00;69.90;;;;;;5001886;28;20069;-78
2022/08/18 02:49:24;;;;;;;15.27;9.90;;;22.10;69.80;;;;;;5002392;28;20037;-80
2022/08/18 02:51:51;;;;;;;9.98;8.20;;;22.20;69.40;;;;;;4973415;28;20045;-80
2022/08/18 02:54:19;;;;;;;12.73;8.40;;;22.10;68.90;;;;;;4985624;28;20038;-81
2022/08/18 02:56:46;;;;;;;10.93;8.52;;;22.10;69.10;;;;;;4999901;28;20030;-81
2022/08/18 02:59:15;;;;;;;13.35;8.82;;;22.00;69.40;;;;;;4985506;28;20038;-80
2022/08/18 03:01:44;;;;;;;12.55;8.98;;;22.00;69.50;;;;;;4987795;28;20046;-80
2022/08/18 03:04:14;;;;;;;15.98;8.60;;;21.90;70.30;;;;;;5003083;28;20133;-81
2022/08/18 03:06:41;;;;;;;13.20;8.63;;;21.90;69.70;;;;;;5002664;28;20114;-81
2022/08/18 03:09:09;;;;;;;11.80;8.30;;;21.90;69.80;;;;;;5001207;28;20050;-81
2022/08/18 03:11:35;;;;;;;16.15;9.02;;;21.90;69.60;;;;;;4984008;28;20053;-81
2022/08/18 03:14:02;;;;;;;14.68;8.48;;;22.00;69.80;;;;;;4981437;28;20042;-80
2022/08/18 03:16:31;;;;;;;13.88;8.88;;;22.00;69.80;;;;;;4983464;28;20034;-79
2022/08/18 03:18:59;;;;;;;11.57;8.02;;;22.00;69.80;;;;;;5001697;28;20035;-80
2022/08/18 03:21:28;;;;;;;10.50;8.50;;;22.00;69.80;;;;;;4986747;28;20504;-80
2022/08/18 03:23:55;;;;;;;13.80;8.35;;;21.90;69.70;;;;;;4975882;28;20429;-80
2022/08/18 03:26:23;;;;;;;12.60;8.48;;;21.90;69.80;;;;;;4982482;28;20048;-81
2022/08/18 03:28:51;;;;;;;14.98;8.80;;;21.90;70.10;;;;;;4999131;28;20280;-81
2022/08/18 03:31:20;;;;;;;15.57;8.27;;;21.90;70.00;;;;;;5000048;28;20060;-81
2022/08/18 03:33:46;;;;;;;13.07;8.90;;;21.90;70.10;;;;;;5002342;28;20385;-81
2022/08/18 03:36:15;;;;;;;16.80;10.38;;;21.90;70.30;;;;;;4967561;28;20045;-80
2022/08/18 03:38:43;;;;;;;16.50;9.13;;;21.90;70.10;;;;;;4999172;28;20038;-81
2022/08/18 03:41:11;;;;;;;14.25;9.23;;;21.90;70.20;;;;;;4970453;28;20037;-80
2022/08/18 03:43:37;;;;;;;10.25;8.00;;;22.00;70.10;;;;;;4984186;28;20029;-82
2022/08/18 03:46:10;;;;;;;17.83;8.90;;;22.00;70.00;;;;;;4980986;28;20025;-81
2022/08/18 03:48:39;;;;;;;18.08;8.98;;;22.00;69.90;;;;;;5002438;28;20045;-81
2022/08/18 03:51:12;;;;;;;15.07;9.20;;;22.00;69.80;;;;;;4967795;28;20026;-81
2022/08/18 03:53:39;;;;;;;16.40;9.63;;;22.10;69.90;;;;;;4985643;28;20030;-80
2022/08/18 03:56:14;;;;;;;14.82;8.68;;;22.10;70.10;;;;;;5001867;28;20562;-81
2022/08/18 03:58:46;;;;;;;21.10;10.00;;;22.10;69.60;;;;;;5000519;28;20072;-82
2022/08/18 04:01:16;;;;;;;16.08;11.93;;;22.10;69.70;;;;;;5003978;28;20045;-82
2022/08/18 04:03:49;;;;;;;16.00;11.82;;;22.20;69.60;;;;;;5002103;28;20034;-81
2022/08/18 04:06:17;;;;;;;21.58;13.70;;;22.20;69.60;;;;;;5003349;28;20053;-81
2022/08/18 04:08:45;;;;;;;21.25;15.45;;;22.20;69.50;;;;;;5001656;28;20046;-81
2022/08/18 04:11:11;;;;;;;20.15;14.75;;;22.20;69.40;;;;;;4985872;28;20038;-79
2022/08/18 04:13:38;;;;;;;22.20;15.40;;;22.30;69.40;;;;;;5003376;28;20041;-80
2022/08/18 04:16:05;;;;;;;26.42;19.17;;;22.40;69.20;;;;;;4986787;28;20036;-79
2022/08/18 04:18:31;;;;;;;29.40;19.10;;;22.40;69.00;;;;;;4986056;28;20030;-81
2022/08/18 04:21:06;;;;;;;29.73;21.90;;;22.40;69.10;;;;;;4970331;28;20069;-82
2022/08/18 04:23:42;;;;;;;34.45;24.05;;;22.40;69.00;;;;;;5001330;28;20074;-82
2022/08/18 04:26:10;;;;;;;29.92;25.50;;;22.50;69.20;;;;;;4985483;28;20087;-81
2022/08/18 04:28:36;;;;;;;36.17;26.20;;;22.60;69.00;;;;;;4968932;28;20091;-82
2022/08/18 04:31:11;;;;;;;45.60;35.08;;;22.70;68.60;;;;;;4955404;28;20026;-83
2022/08/18 04:33:38;;;;;;;36.05;31.27;;;22.90;68.00;;;;;;5002711;28;20497;-81
2022/08/18 04:36:14;;;;;;;40.80;31.98;;;23.00;67.60;;;;;;5002956;28;20084;-80
2022/08/18 04:38:41;;;;;;;46.33;32.30;;;23.00;67.60;;;;;;4968468;28;20077;-77
2022/08/18 04:41:08;;;;;;;37.88;31.83;;;23.10;67.70;;;;;;4998893;28;20042;-76
2022/08/18 04:43:34;;;;;;;43.17;35.70;;;23.20;67.50;;;;;;4996499;28;20496;-76
2022/08/18 04:46:00;;;;;;;50.50;40.58;;;23.30;67.10;;;;;;5002505;28;20493;-77
2022/08/18 04:48:38;;;;;;;46.08;37.58;;;23.40;66.50;;;;;;5000415;28;20036;-77
2022/08/18 04:51:13;;;;;;;40.42;33.33;;;23.60;66.30;;;;;;4993455;28;20057;-77
2022/08/18 04:53:45;;;;;;;40.38;31.88;;;23.80;65.90;;;;;;4983619;28;20035;-77
2022/08/18 04:56:25;;;;;;;37.45;29.55;;;23.80;65.80;;;;;;4999235;28;20034;-77
2022/08/18 04:58:58;;;;;;;34.35;28.63;;;23.90;65.50;;;;;;4997861;28;20030;-77
2022/08/18 05:01:27;;;;;;;37.38;28.35;;;23.90;65.30;;;;;;4998925;28;20048;-77
2022/08/18 05:03:57;;;;;;;33.35;26.83;;;24.00;65.10;;;;;;4990882;28;20088;-77
2022/08/18 05:06:26;;;;;;;31.15;26.33;;;24.00;65.00;;;;;;4999757;28;20459;-77
2022/08/18 05:08:54;;;;;;;34.92;26.27;;;24.00;64.90;;;;;;4998442;28;20141;-77
2022/08/18 05:11:21;;;;;;;35.30;25.15;;;24.10;64.70;;;;;;4981150;28;20035;-77
2022/08/18 05:13:48;;;;;;;30.35;24.02;;;24.10;64.60;;;;;;4988767;28;20123;-77
2022/08/18 05:16:15;;;;;;;33.25;23.98;;;24.20;64.60;;;;;;5003100;28;20049;-77
2022/08/18 05:18:41;;;;;;;32.92;24.13;;;24.30;64.50;;;;;;5003420;28;20065;-77
2022/08/18 05:21:13;;;;;;;31.58;24.65;;;24.40;64.20;;;;;;4986089;28;20038;-77
2022/08/18 05:23:44;;;;;;;29.02;24.17;;;24.40;63.90;;;;;;4999717;28;20042;-77
2022/08/18 05:26:13;;;;;;;30.98;23.35;;;24.50;63.70;;;;;;5003302;28;20631;-76
2022/08/18 05:28:41;;;;;;;31.10;23.48;;;24.70;63.50;;;;;;5005173;28;20398;-77
2022/08/18 05:31:13;;;;;;;32.40;22.73;;;24.90;63.10;;;;;;4984865;28;20029;-78
2022/08/18 05:33:39;;;;;;;29.30;21.98;;;25.00;62.50;;;;;;5004350;28;20487;-77
2022/08/18 05:36:29;;;;;;;35.60;20.27;;;25.00;62.50;;;;;;4986889;28;20045;-77
2022/08/18 05:39:02;;;;;;;30.75;19.85;;;25.20;62.10;;;;;;4995798;28;20030;-77
2022/08/18 05:41:34;;;;;;;29.08;18.95;;;25.30;61.90;;;;;;4989672;28;20164;-76
2022/08/18 05:44:01;;;;;;;22.15;16.92;;;25.50;62.00;;;;;;5004718;28;20041;-77
2022/08/18 05:46:51;;;;;;;26.13;18.38;;;25.70;61.60;;;;;;5004489;28;20030;-77
2022/08/18 05:49:18;;;;;;;28.30;20.20;;;25.90;60.90;;;;;;4986055;28;20084;-77
2022/08/18 05:51:49;;;;;;;25.92;18.92;;;26.00;60.80;;;;;;5001228;28;20033;-76
2022/08/18 05:57:09;;;;;;;27.38;20.25;;;26.20;60.30;;;;;;5002679;28;20420;-77
2022/08/18 05:59:38;;;;;;;35.42;19.60;;;26.20;59.80;;;;;;4986453;28;20640;-78
2022/08/18 06:02:22;;;;;;;29.33;21.17;;;26.30;59.90;;;;;;5003162;28;20427;-80
2022/08/18 06:04:55;;;;;;;27.83;22.83;;;26.30;59.80;;;;;;5001795;28;20515;-78
2022/08/18 06:07:51;;;;;;;28.25;21.75;;;26.20;60.00;;;;;;5003294;28;20130;-79
2022/08/18 06:10:18;;;;;;;33.85;23.40;;;26.20;60.20;;;;;;4988798;28;20347;-79
2022/08/18 06:12:45;;;;;;;31.80;22.55;;;26.40;60.00;;;;;;5003435;28;20389;-79
2022/08/18 06:15:55;;;;;;;29.15;25.20;;;26.50;59.50;;;;;;4982257;28;20050;-80
2022/08/18 06:18:27;;;;;;;31.10;24.02;;;26.30;59.20;;;;;;4938666;28;20438;-77
2022/08/18 06:21:43;;;;;;;34.92;26.30;;;26.20;59.40;;;;;;4996964;28;20543;-79
2022/08/18 06:24:31;;;;;;;30.70;25.23;;;26.30;59.50;;;;;;4942977;28;20718;-78
2022/08/18 06:27:08;;;;;;;30.05;24.20;;;26.30;59.60;;;;;;5000247;28;20088;-80
2022/08/18 06:30:03;;;;;;;28.30;22.92;;;26.30;59.50;;;;;;5002132;28;20034;-80
2022/08/18 06:33:09;;;;;;;29.75;22.40;;;26.30;58.90;;;;;;4941055;28;20062;-77
2022/08/18 06:36:01;;;;;;;26.90;19.90;;;26.40;59.20;;;;;;4903745;29;20130;-79
2022/08/18 06:38:52;;;;;;;26.58;17.50;;;26.40;58.90;;;;;;4902935;29;20032;-79
2022/08/18 06:41:23;;;;;;;22.33;16.85;;;26.40;59.20;;;;;;4906713;29;20060;-88
2022/08/18 06:44:02;;;;;;;22.75;15.60;;;26.50;58.80;;;;;;4903687;29;20059;-84
2022/08/18 06:46:46;;;;;;;21.05;14.25;;;26.80;58.90;;;;;;4884055;29;20500;-82
2022/08/18 06:49:34;;;;;;;17.88;13.23;;;26.90;58.50;;;;;;4905924;29;20520;-82
2022/08/18 06:52:18;;;;;;;18.77;12.13;;;26.90;58.50;;;;;;4875633;29;20500;-83
2022/08/18 06:54:44;;;;;;;16.23;11.20;;;27.10;58.00;;;;;;4888768;29;20115;-83
2022/08/18 06:57:26;;;;;;;14.73;11.40;;;27.20;57.30;;;;;;4904077;29;20040;-83
2022/08/18 07:00:17;;;;;;;13.75;10.40;;;27.20;57.50;;;;;;4904544;29;20087;-82
2022/08/18 07:02:52;;;;;;;14.48;10.90;;;27.20;57.10;;;;;;4896372;29;20067;-85
2022/08/18 07:05:25;;;;;;;15.85;10.90;;;27.30;57.30;;;;;;4903505;29;20554;-83
2022/08/18 07:08:27;;;;;;;14.70;9.65;;;27.50;56.80;;;;;;4886414;29;20073;-81
2022/08/18 07:10:53;;;;;;;12.50;10.30;;;27.60;55.60;;;;;;4960624;28;20543;-81
2022/08/18 07:13:21;;;;;;;12.90;8.35;;;27.60;55.30;;;;;;4985030;28;20038;-81
2022/08/18 07:15:48;;;;;;;13.60;8.98;;;27.70;55.70;;;;;;4985706;28;20143;-81
2022/08/18 07:18:22;;;;;;;17.63;10.02;;;27.80;55.90;;;;;;4970139;28;20034;-83
2022/08/18 07:21:00;;;;;;;12.82;8.68;;;27.90;56.00;;;;;;4984016;28;20125;-80
2022/08/18 07:23:33;;;;;;;14.25;8.93;;;28.00;56.50;;;;;;4983935;28;20072;-79
2022/08/18 07:26:11;;;;;;;9.35;7.82;;;28.00;55.80;;;;;;4994698;28;20031;-80
2022/08/18 07:28:43;;;;;;;9.93;7.60;;;28.10;55.70;;;;;;4999832;28;20097;-80
2022/08/18 07:31:30;;;;;;;9.50;7.55;;;28.10;55.70;;;;;;4970785;28;20444;-80
2022/08/18 07:34:15;;;;;;;10.40;6.82;;;28.20;55.50;;;;;;4968080;28;20140;-81
2022/08/18 07:36:48;;;;;;;10.60;6.95;;;28.30;54.70;;;;;;4990302;28;20041;-81
2022/08/18 07:39:30;;;;;;;10.13;6.60;;;28.30;54.80;;;;;;4992038;28;20045;-81
2022/08/18 07:42:09;;;;;;;10.93;5.93;;;28.30;54.50;;;;;;5003506;28;20050;-82
2022/08/18 07:44:42;;;;;;;9.02;5.78;;;28.30;54.00;;;;;;5011086;28;20030;-81
2022/08/18 07:47:21;;;;;;;10.07;5.90;;;28.30;54.10;;;;;;5005701;28;20030;-81
2022/08/18 07:49:47;;;;;;;10.02;5.75;;;28.30;54.00;;;;;;5011794;28;20059;-82
2022/08/18 07:52:29;;;;;;;8.90;5.53;;;28.40;53.90;;;;;;5007904;28;20091;-83
2022/08/18 07:55:28;;;;;;;10.15;5.38;;;28.40;54.70;;;;;;5011136;28;20092;-80
2022/08/18 07:58:25;;;;;;;7.10;4.30;;;28.30;52.80;;;;;;4993313;28;20022;-82
2022/08/18 08:01:01;;;;;;;11.05;5.20;;;28.30;54.00;;;;;;5010288;28;20040;-88
2022/08/18 08:03:36;;;;;;;31.35;5.35;;;28.30;55.20;;;;;;4994541;28;20038;-89
2022/08/18 08:06:21;;;;;;;10.57;4.47;;;28.40;54.30;;;;;;5007693;28;20045;-87
2022/08/18 08:09:17;;;;;;;11.50;4.00;;;28.40;53.70;;;;;;4992640;28;20059;-89
2022/08/18 08:11:54;;;;;;;6.43;3.30;;;28.40;51.70;;;;;;4987526;28;20117;-87
2022/08/18 08:14:32;;;;;;;6.40;3.83;;;28.40;51.90;;;;;;5013149;28;20037;-90
2022/08/18 08:17:31;;;;;;;11.43;3.85;;;28.40;54.00;;;;;;5003158;28;20037;-87
2022/08/18 08:20:26;;;;;;;4.95;3.25;;;28.40;51.80;;;;;;4975293;28;20041;-85
2022/08/18 08:23:16;;;;;;;8.18;3.70;;;28.50;51.30;;;;;;4964911;28;20612;-87
2022/08/18 08:26:00;;;;;;;5.57;3.05;;;28.40;50.00;;;;;;4976107;28;20042;-91
2022/08/18 08:28:50;;;;;;;5.07;3.17;;;28.40;50.60;;;;;;4992760;28;20038;-86
2022/08/18 08:31:27;;;;;;;10.00;3.40;;;28.40;50.70;;;;;;4988664;28;20054;-88
2022/08/18 08:34:01;;;;;;;3.15;2.70;;;28.30;51.10;;;;;;5007137;28;20042;-86
2022/08/18 08:36:31;;;;;;;7.32;3.10;;;28.30;51.00;;;;;;5003627;28;20108;-83
2022/08/18 08:39:22;;;;;;;5.25;2.83;;;28.30;49.10;;;;;;4982459;28;20129;-84
2022/08/18 08:41:56;;;;;;;9.60;3.35;;;28.30;49.00;;;;;;5004935;28;20413;-89
2022/08/18 08:44:48;;;;;;;6.30;2.88;;;28.20;49.20;;;;;;5001731;28;20180;-84
2022/08/18 08:47:19;;;;;;;7.47;2.90;;;28.10;49.10;;;;;;5003195;28;20124;-83
2022/08/18 08:49:51;;;;;;;3.25;2.75;;;28.10;49.30;;;;;;5004120;28;20030;-81
2022/08/18 08:52:23;;;;;;;8.70;2.70;;;28.10;50.30;;;;;;4986768;28;21079;-84
2022/08/18 08:55:08;;;;;;;8.25;2.97;;;28.10;49.30;;;;;;5005942;28;20042;-81
2022/08/18 08:58:09;;;;;;;7.20;3.17;;;28.10;50.20;;;;;;4986367;28;20088;-85
2022/08/18 09:00:38;;;;;;;5.35;2.85;;;28.00;50.40;;;;;;4986525;28;20056;-84
2022/08/18 09:03:23;;;;;;;6.80;2.88;;;28.00;50.70;;;;;;5002990;28;20038;-84
2022/08/18 09:06:21;;;;;;;3.83;3.08;;;28.00;50.50;;;;;;4989902;28;20965;-85
2022/08/18 09:09:21;;;;;;;5.72;3.20;;;28.00;50.40;;;;;;5000462;28;20061;-85
2022/08/18 09:12:11;;;;;;;5.85;3.30;;;28.00;50.10;;;;;;4985732;28;20532;-86
2022/08/18 09:14:55;;;;;;;4.20;2.78;;;28.00;50.40;;;;;;5003941;28;20030;-86
2022/08/18 09:17:27;;;;;;;7.15;2.72;;;28.00;50.70;;;;;;4972164;28;20272;-86
2022/08/18 09:20:31;;;;;;;6.53;3.20;;;27.90;50.40;;;;;;4997152;28;20058;-81
2022/08/18 09:23:08;;;;;;;3.92;3.35;;;27.90;50.60;;;;;;4999189;28;20046;-83
2022/08/18 09:25:38;;;;;;;9.10;3.92;;;27.90;50.80;;;;;;4988401;28;20456;-87
2022/08/18 09:28:17;;;;;;;7.13;3.28;;;27.90;50.60;;;;;;4985890;28;20033;-84
2022/08/18 09:31:02;;;;;;;7.78;3.22;;;27.90;51.30;;;;;;5004012;28;20022;-86
2022/08/18 09:33:39;;;;;;;11.30;3.73;;;27.90;50.70;;;;;;4986977;28;20034;-86
2022/08/18 09:36:24;;;;;;;13.27;3.33;;;27.80;50.70;;;;;;4971310;28;20038;-88
2022/08/18 09:41:47;;;;;;;10.05;3.10;;;27.80;50.50;;;;;;4987699;28;20045;-90
2022/08/18 09:44:34;;;;;;;9.32;3.00;;;27.80;50.40;;;;;;5005439;28;20073;-86
2022/08/18 09:47:01;;;;;;;7.22;3.03;;;27.80;50.90;;;;;;5002774;28;20095;-85
2022/08/18 09:49:28;;;;;;;7.50;3.60;;;27.80;50.50;;;;;;5002557;28;20037;-86
2022/08/18 09:52:19;;;;;;;5.68;3.20;;;27.80;50.20;;;;;;4985842;28;20068;-85
2022/08/18 09:54:57;;;;;;;5.20;2.90;;;27.80;49.90;;;;;;5001356;28;20134;-86
2022/08/18 09:57:30;;;;;;;8.88;3.20;;;27.80;50.00;;;;;;4985538;28;20483;-87
2022/08/18 10:00:18;;;;;;;5.25;2.90;;;27.80;50.00;;;;;;4984856;28;20050;-86
2022/08/18 10:03:10;;;;;;;7.88;3.78;;;27.80;49.90;;;;;;4983914;28;20459;-87
2022/08/18 10:05:37;;;;;;;5.45;3.20;;;27.80;49.60;;;;;;4969816;28;20038;-87
2022/08/18 10:08:06;;;;;;;8.73;5.25;;;27.80;49.70;;;;;;5002640;28;20053;-86
2022/08/18 10:10:36;;;;;;;9.20;6.35;;;27.80;49.80;;;;;;4968218;28;20077;-85
2022/08/18 10:13:15;;;;;;;4.88;3.70;;;27.80;49.40;;;;;;4985793;28;20113;-86
2022/08/18 10:16:11;;;;;;;5.57;2.97;;;27.80;48.90;;;;;;5004274;28;20109;-86
2022/08/18 10:19:06;;;;;;;6.07;2.83;;;27.80;49.00;;;;;;4973467;28;20061;-84
2022/08/18 10:21:57;;;;;;;4.95;2.80;;;27.80;49.00;;;;;;4988777;28;20034;-86
2022/08/18 10:24:29;;;;;;;8.70;3.47;;;27.80;48.80;;;;;;4985116;28;20046;-85
2022/08/18 10:26:55;;;;;;;5.15;2.80;;;27.80;49.10;;;;;;5000080;28;20153;-83
2022/08/18 10:29:27;;;;;;;7.68;2.95;;;27.80;49.00;;;;;;4990149;28;20169;-86
2022/08/18 10:31:56;;;;;;;5.72;2.70;;;27.80;48.20;;;;;;4985565;28;20034;-84
2022/08/18 10:34:47;;;;;;;4.40;2.13;;;27.80;47.40;;;;;;4986528;28;20038;-86
2022/08/18 10:37:54;;;;;;;4.93;2.53;;;27.80;48.20;;;;;;4996341;28;20049;-84
2022/08/18 10:40:22;;;;;;;3.50;2.70;;;27.80;47.60;;;;;;4981304;28;20391;-86
2022/08/18 10:42:56;;;;;;;5.43;2.35;;;27.80;47.20;;;;;;4966109;28;20038;-85
2022/08/18 10:45:35;;;;;;;2.97;2.40;;;27.80;46.60;;;;;;4954872;28;20078;-85
2022/08/18 10:48:04;;;;;;;3.78;2.08;;;27.80;46.10;;;;;;4966658;28;20557;-85
2022/08/18 10:50:45;;;;;;;5.43;2.20;;;27.80;46.10;;;;;;4980827;28;20144;-84
2022/08/18 10:53:33;;;;;;;4.07;2.25;;;27.80;46.20;;;;;;4979726;28;20565;-84
2022/08/18 10:56:10;;;;;;;5.95;2.25;;;27.80;45.90;;;;;;4981939;28;20045;-85
2022/08/18 10:59:09;;;;;;;2.65;2.10;;;27.80;45.90;;;;;;4981022;28;20050;-85
2022/08/18 11:02:02;;;;;;;6.25;2.22;;;27.80;46.20;;;;;;4979515;28;20038;-85
2022/08/18 11:04:33;;;;;;;4.88;2.45;;;27.80;46.60;;;;;;4962978;28;20046;-85
2022/08/18 11:07:13;;;;;;;4.70;1.95;;;27.80;46.20;;;;;;4980978;28;20039;-85
2022/08/18 11:09:41;;;;;;;5.68;2.10;;;27.90;45.10;;;;;;4981319;28;20053;-86
2022/08/18 11:12:12;;;;;;;2.30;2.10;;;27.80;47.60;;;;;;4978908;28;20034;-85
2022/08/18 11:14:49;;;;;;;7.82;2.20;;;27.80;45.90;;;;;;4967261;28;20035;-85
2022/08/18 11:17:23;;;;;;;3.80;1.95;;;27.80;44.90;;;;;;4983837;28;20512;-84
2022/08/18 11:19:51;;;;;;;4.80;2.08;;;27.80;44.50;;;;;;4988756;28;20128;-85
2022/08/18 11:22:27;;;;;;;4.50;2.38;;;27.80;44.80;;;;;;4990548;28;20034;-85
2022/08/18 11:24:53;;;;;;;6.13;2.30;;;27.80;44.70;;;;;;4993434;28;20381;-84
2022/08/18 11:27:22;;;;;;;5.88;1.90;;;27.80;44.20;;;;;;4985559;28;20519;-85
2022/08/18 11:29:50;;;;;;;3.75;2.13;;;27.80;44.00;;;;;;4988268;28;20038;-85
2022/08/18 11:32:26;;;;;;;4.13;2.10;;;27.80;44.30;;;;;;5002656;28;20039;-85
2022/08/18 11:34:58;;;;;;;2.20;2.00;;;27.80;44.00;;;;;;4984485;28;20030;-82
2022/08/18 11:38:10;;;;;;;5.60;2.10;;;27.80;44.80;;;;;;5000137;28;20051;-86
2022/08/18 11:40:40;;;;;;;2.70;1.92;;;27.80;44.10;;;;;;4983734;28;20026;-85
2022/08/18 11:43:11;;;;;;;3.75;2.25;;;27.90;43.70;;;;;;4971860;28;20187;-83
2022/08/18 11:45:45;;;;;;;4.30;1.70;;;27.90;42.90;;;;;;4983241;28;20061;-86
2022/08/18 11:48:20;;;;;;;6.00;2.13;;;27.80;42.90;;;;;;4998527;28;20034;-84
2022/08/18 11:50:49;;;;;;;3.03;1.70;;;27.90;43.80;;;;;;4999435;28;20030;-83
2022/08/18 11:53:50;;;;;;;2.58;2.20;;;27.90;43.30;;;;;;5005460;28;20089;-93
2022/08/18 11:56:19;;;;;;;3.50;2.03;;;27.90;43.40;;;;;;4975768;28;20034;-96
2022/08/18 11:58:47;;;;;;;1.92;1.80;;;27.90;42.90;;;;;;4976243;28;20042;-91
2022/08/18 12:01:34;;;;;;;2.97;1.48;;;27.90;42.30;;;;;;4967069;28;20806;-95
2022/08/18 12:04:12;;;;;;;3.80;1.60;;;27.90;43.60;;;;;;4975592;28;20040;-95
2022/08/18 12:06:54;;;;;;;3.40;1.60;;;27.80;42.70;;;;;;4987909;28;20085;-89
2022/08/18 12:09:23;;;;;;;2.25;1.52;;;27.80;43.00;;;;;;4986273;28;20061;-85
2022/08/18 12:11:55;;;;;;;1.35;1.25;;;27.80;41.30;;;;;;4955255;28;20034;-95
2022/08/18 12:14:25;;;;;;;4.03;1.30;;;27.90;42.10;;;;;;4990701;28;20030;-92
2022/08/18 12:16:52;;;;;;;3.05;1.60;;;27.90;41.20;;;;;;4956562;28;20424;-89
2022/08/18 12:19:18;;;;;;;3.17;1.83;;;27.90;44.80;;;;;;5003498;28;20041;-78
2022/08/18 12:21:50;;;;;;;2.60;1.40;;;27.90;46.80;;;;;;5002005;28;20448;-79
2022/08/18 12:24:34;;;;;;;6.40;1.75;;;27.80;49.10;;;;;;5001030;28;20046;-82
2022/08/18 12:27:00;;;;;;;3.08;1.55;;;27.80;41.20;;;;;;4972624;28;20453;-81
2022/08/18 12:29:26;;;;;;;4.95;1.50;;;27.80;45.80;;;;;;4983877;28;20042;-82
2022/08/18 12:31:54;;;;;;;4.10;1.80;;;27.70;50.10;;;;;;4987948;28;20034;-82
2022/08/18 12:34:25;;;;;;;2.67;1.73;;;27.70;47.00;;;;;;4998995;28;20029;-84
2022/08/18 12:36:53;;;;;;;8.55;2.03;;;27.70;43.90;;;;;;5001044;28;20049;-86
2022/08/18 12:39:19;;;;;;;3.10;1.70;;;27.70;48.00;;;;;;5000358;28;20068;-84
2022/08/18 12:41:45;;;;;;;3.67;1.92;;;27.80;48.70;;;;;;4988573;28;20034;-87
2022/08/18 12:44:10;;;;;;;6.15;2.03;;;27.70;45.70;;;;;;5000767;28;20046;-89
2022/08/18 12:46:37;;;;;;;6.38;1.73;;;27.80;42.70;;;;;;5002604;28;20057;-88
2022/08/18 12:49:04;;;;;;;4.50;1.73;;;27.80;47.10;;;;;;5002359;28;20128;-83
2022/08/18 12:51:30;;;;;;;1.70;1.60;;;27.80;42.40;;;;;;5000598;28;20038;-80
2022/08/18 12:53:57;;;;;;;5.20;1.92;;;27.80;42.10;;;;;;5004139;28;20088;-81
2022/08/18 12:56:29;;;;;;;4.47;1.70;;;27.70;45.20;;;;;;5010391;28;20037;-80
2022/08/18 12:58:57;;;;;;;2.97;1.80;;;27.80;41.40;;;;;;5003241;28;20038;-81
2022/08/18 13:01:24;;;;;;;2.28;1.48;;;27.70;43.30;;;;;;5007446;28;20034;-80
2022/08/18 13:03:52;;;;;;;3.33;1.80;;;27.80;44.10;;;;;;5004023;28;20065;-80
2022/08/18 13:06:18;;;;;;;1.85;1.73;;;27.80;43.50;;;;;;5006943;28;20042;-80
2022/08/18 13:08:45;;;;;;;5.47;2.03;;;27.80;43.60;;;;;;5009551;28;20046;-86
2022/08/18 13:11:11;;;;;;;4.38;2.10;;;27.80;42.50;;;;;;5007537;28;20036;-86
2022/08/18 13:13:38;;;;;;;4.10;2.05;;;27.80;44.10;;;;;;5005923;28;20065;-89
2022/08/18 13:16:07;;;;;;;3.30;2.03;;;27.80;46.20;;;;;;5011853;28;20030;-89
2022/08/18 13:18:34;;;;;;;2.38;1.88;;;27.90;44.10;;;;;;5016426;28;20037;-86
2022/08/18 13:21:02;;;;;;;3.05;2.00;;;27.80;43.70;;;;;;4991310;28;20096;-88
2022/08/18 13:23:29;;;;;;;3.58;2.00;;;27.80;43.20;;;;;;5008603;28;20053;-90
2022/08/18 13:25:58;;;;;;;2.50;1.80;;;27.80;44.90;;;;;;5011598;28;20038;-89
2022/08/18 13:28:24;;;;;;;7.15;2.25;;;27.80;47.40;;;;;;4989667;28;20049;-87